ADDS METAR Data INFO
IDs: Format: Raw Decoded Include TAF

Data at: 0751 UTC 17 Oct 2017

KDVT 170653Z 05007KT 10SM CLR 27/03 A3003 RMK AO2 SLP142 T02720033 403560206 $
KDVT 170553Z 04010KT 10SM CLR 26/01 A3002 RMK AO2 SLP140 T02610006 10350 20250 50004 $
KDVT 170453Z 04007KT 10SM CLR 27/01 A3002 RMK AO2 SLP141 T02670006 $
KDVT 170353Z 02006KT 10SM CLR 28/01 A3001 RMK AO2 SLP138 T02780006 $
KDVT 170253Z 36005KT 10SM CLR 29/02 A3000 RMK AO2 SLP137 T02890017 53004 $
KDVT 170153Z 36003KT 10SM CLR 31/01 A2999 RMK AO2 SLP134 T03110011 $
KDVT 170053Z 25006KT 10SM CLR 33/01 A2999 RMK AO2 SLP131 T03330006 $
KDVT 162353Z 24007KT 10SM CLR 35/01 A2999 RMK AO2 SLP131 T03500011 10356 20311 56010 $
KDVT 162253Z 16003KT 10SM CLR 35/01 A3000 RMK AO2 SLP132 T03500006 $
KDVT 162153Z 16005KT 10SM CLR 35/M01 A3001 RMK AO2 SLP135 T03501006 $
KDVT 162053Z COR 10005KT 10SM CLR 34/M03 A3002 RMK AO2 SLP141 T03441028 58034
KDVT 161953Z COR 10007KT 060V140 10SM CLR 34/M04 A3006 RMK AO2 SLP152 T03391039
KDVT 161853Z VRB05KT 10SM CLR 33/M03 A3010 RMK AO2 SLP168 T03281033
KDVT 161753Z 17005KT 10SM CLR 31/M03 A3013 RMK AO2 SLP179 T03111033 10311 20206 58003
KDVT 161653Z 11007KT 10SM CLR 31/M04 A3013 RMK AO2 SLP181 T03061044
KDVT 161553Z 10007KT 10SM CLR 29/M04 A3014 RMK AO2 SLP183 T02891039
KDVT 161453Z VRB04KT 10SM CLR 26/M06 A3013 RMK AO2 SLP182 T02561061 53013
KDVT 161353Z 04004KT 10SM CLR 21/M06 A3012 RMK AO2 SLP178 T02111056
KDVT 161253Z 00000KT 10SM CLR 22/M07 A3011 RMK AO2 SLP173 T02171067
KDVT 161153Z AUTO 09007KT 10SM CLR 24/M06 A3009 RMK AO2 SLP167 T02391061 10272 20233 53001
KDVT 161053Z AUTO 06004KT 10SM CLR 24/M07 A3009 RMK AO2 SLP163 T02441067
KDVT 160953Z AUTO 08006KT 10SM CLR 26/M07 A3009 RMK AO2 SLP163 T02611067
KDVT 160853Z AUTO 08007KT 10SM CLR 24/M08 A3009 RMK AO2 SLP166 T02441078 53005
KDVT 160753Z AUTO 08007KT 10SM CLR 27/M09 A3009 RMK AO2 SLP163 T02671089
KDVT 160653Z AUTO 06005KT 10SM CLR 24/M09 A3008 RMK AO2 SLP163 T02441089 403500189
KDVT 160553Z 04007KT 10SM CLR 24/M09 A3008 RMK AO2 SLP162 T02441094 10339 20239 52008
KDVT 160453Z AUTO 07005KT 10SM CLR 26/M10 A3007 RMK AO2 SLP160 T02561100
KDVT 160353Z 00000KT 10SM CLR 25/M09 A3006 RMK AO2 SLP158 T02501094
KDVT 160253Z 02005KT 10SM CLR 27/M09 A3005 RMK AO2 SLP155 T02721089 53009
KDVT 160153Z 33003KT 10SM CLR 28/M09 A3004 RMK AO2 SLP152 T02831089
KDVT 160053Z 23005KT 10SM CLR 32/M09 A3002 RMK AO2 SLP145 T03221094
KDVT 152353Z 24005KT 10SM CLR 34/M12 A3002 RMK AO2 SLP144 T03391117 10350 20306 56011
KDVT 152253Z 00000KT 10SM CLR 34/M13 A3003 RMK AO2 SLP144 T03391128
KDVT 152153Z 22005KT 10SM CLR 34/M14 A3004 RMK AO2 SLP150 T03391144
KDVT 152053Z 20004KT 10SM CLR 33/M14 A3006 RMK AO2 SLP155 T03331139 58026
KDVT 151953Z COR VRB05KT 10SM CLR 32/M13 A3009 RMK AO2 SLP167 T03221133